sensor_id;sensor_type;location;lat;lon;timestamp;temperature;humidity
76384;SHT30;65204;48.606;7.598;2023-03-01T00:00:00;2.08;59.97
76384;SHT30;65204;48.606;7.598;2023-03-01T00:00:30;2.08;60.00
76384;SHT30;65204;48.606;7.598;2023-03-01T00:01:06;2.06;60.02
76384;SHT30;65204;48.606;7.598;2023-03-01T00:01:37;2.03;60.01
76384;SHT30;65204;48.606;7.598;2023-03-01T00:02:07;2.05;60.00
76384;SHT30;65204;48.606;7.598;2023-03-01T00:02:37;2.08;60.01
76384;SHT30;65204;48.606;7.598;2023-03-01T00:03:08;2.08;60.00
76384;SHT30;65204;48.606;7.598;2023-03-01T00:03:38;2.06;60.02
76384;SHT30;65204;48.606;7.598;2023-03-01T00:04:09;2.06;60.04
76384;SHT30;65204;48.606;7.598;2023-03-01T00:04:40;2.08;60.04
76384;SHT30;65204;48.606;7.598;2023-03-01T00:05:10;2.08;60.02
76384;SHT30;65204;48.606;7.598;2023-03-01T00:05:44;2.09;60.03
76384;SHT30;65204;48.606;7.598;2023-03-01T00:06:16;2.03;59.98
76384;SHT30;65204;48.606;7.598;2023-03-01T00:06:46;2.05;59.94
76384;SHT30;65204;48.606;7.598;2023-03-01T00:07:17;2.02;59.98
76384;SHT30;65204;48.606;7.598;2023-03-01T00:07:47;2.06;59.97
76384;SHT30;65204;48.606;7.598;2023-03-01T00:08:18;2.05;59.84
76384;SHT30;65204;48.606;7.598;2023-03-01T00:08:48;2.09;59.89
76384;SHT30;65204;48.606;7.598;2023-03-01T00:09:19;2.09;59.84
76384;SHT30;65204;48.606;7.598;2023-03-01T00:09:49;2.06;59.93
76384;SHT30;65204;48.606;7.598;2023-03-01T00:10:20;2.11;59.80
76384;SHT30;65204;48.606;7.598;2023-03-01T00:11:00;2.13;59.71
76384;SHT30;65204;48.606;7.598;2023-03-01T00:11:32;2.16;59.73
76384;SHT30;65204;48.606;7.598;2023-03-01T00:12:03;2.15;59.67
76384;SHT30;65204;48.606;7.598;2023-03-01T00:12:34;2.13;59.64
76384;SHT30;65204;48.606;7.598;2023-03-01T00:13:06;2.11;59.67
76384;SHT30;65204;48.606;7.598;2023-03-01T00:13:37;2.11;59.71
76384;SHT30;65204;48.606;7.598;2023-03-01T00:14:08;2.11;59.76
76384;SHT30;65204;48.606;7.598;2023-03-01T00:14:38;2.11;59.78
76384;SHT30;65204;48.606;7.598;2023-03-01T00:15:09;2.09;59.78
76384;SHT30;65204;48.606;7.598;2023-03-01T00:15:40;2.11;59.84
76384;SHT30;65204;48.606;7.598;2023-03-01T00:16:14;2.12;59.82
76384;SHT30;65204;48.606;7.598;2023-03-01T00:16:45;2.08;59.85
76384;SHT30;65204;48.606;7.598;2023-03-01T00:17:15;2.08;59.84
76384;SHT30;65204;48.606;7.598;2023-03-01T00:17:47;2.08;59.83
76384;SHT30;65204;48.606;7.598;2023-03-01T00:18:17;2.08;59.88
76384;SHT30;65204;48.606;7.598;2023-03-01T00:18:48;2.08;59.94
76384;SHT30;65204;48.606;7.598;2023-03-01T00:19:19;2.06;59.94
76384;SHT30;65204;48.606;7.598;2023-03-01T00:19:50;2.08;59.91
76384;SHT30;65204;48.606;7.598;2023-03-01T00:20:20;2.05;59.93
76384;SHT30;65204;48.606;7.598;2023-03-01T00:20:52;2.06;59.94
76384;SHT30;65204;48.606;7.598;2023-03-01T00:21:23;2.08;59.88
76384;SHT30;65204;48.606;7.598;2023-03-01T00:21:54;2.05;59.90
76384;SHT30;65204;48.606;7.598;2023-03-01T00:22:26;2.09;59.90
76384;SHT30;65204;48.606;7.598;2023-03-01T00:22:57;2.05;59.96
76384;SHT30;65204;48.606;7.598;2023-03-01T00:23:27;2.05;59.99
76384;SHT30;65204;48.606;7.598;2023-03-01T00:23:58;1.98;59.90
76384;SHT30;65204;48.606;7.598;2023-03-01T00:24:28;2.02;59.98
76384;SHT30;65204;48.606;7.598;2023-03-01T00:24:59;2.06;59.88
76384;SHT30;65204;48.606;7.598;2023-03-01T00:25:29;2.03;59.87
76384;SHT30;65204;48.606;7.598;2023-03-01T00:25:59;2.06;59.90
76384;SHT30;65204;48.606;7.598;2023-03-01T00:26:30;2.06;59.85
76384;SHT30;65204;48.606;7.598;2023-03-01T00:27:00;2.06;59.82
76384;SHT30;65204;48.606;7.598;2023-03-01T00:27:31;2.05;59.87
76384;SHT30;65204;48.606;7.598;2023-03-01T00:28:01;2.06;59.93
76384;SHT30;65204;48.606;7.598;2023-03-01T00:28:31;2.03;59.86
76384;SHT30;65204;48.606;7.598;2023-03-01T00:29:02;2.03;59.81
76384;SHT30;65204;48.606;7.598;2023-03-01T00:29:32;2.05;59.83
76384;SHT30;65204;48.606;7.598;2023-03-01T00:30:03;2.02;59.89
76384;SHT30;65204;48.606;7.598;2023-03-01T00:30:33;2.01;59.92
76384;SHT30;65204;48.606;7.598;2023-03-01T00:31:05;2.01;59.94
76384;SHT30;65204;48.606;7.598;2023-03-01T00:31:36;1.99;59.95
76384;SHT30;65204;48.606;7.598;2023-03-01T00:32:07;1.98;59.95
76384;SHT30;65204;48.606;7.598;2023-03-01T00:32:37;1.99;60.00
76384;SHT30;65204;48.606;7.598;2023-03-01T00:33:07;1.99;60.00
76384;SHT30;65204;48.606;7.598;2023-03-01T00:33:38;1.97;60.05
76384;SHT30;65204;48.606;7.598;2023-03-01T00:34:09;1.95;60.10
76384;SHT30;65204;48.606;7.598;2023-03-01T00:34:39;1.95;60.16
76384;SHT30;65204;48.606;7.598;2023-03-01T00:35:09;1.95;60.12
76384;SHT30;65204;48.606;7.598;2023-03-01T00:35:40;1.97;60.10
76384;SHT30;65204;48.606;7.598;2023-03-01T00:36:12;1.99;60.06
76384;SHT30;65204;48.606;7.598;2023-03-01T00:36:44;1.95;60.10
76384;SHT30;65204;48.606;7.598;2023-03-01T00:37:15;1.94;60.26
76384;SHT30;65204;48.606;7.598;2023-03-01T00:37:45;1.92;60.28
76384;SHT30;65204;48.606;7.598;2023-03-01T00:38:16;1.92;60.24
76384;SHT30;65204;48.606;7.598;2023-03-01T00:38:46;1.89;60.33
76384;SHT30;65204;48.606;7.598;2023-03-01T00:39:16;1.91;60.29
76384;SHT30;65204;48.606;7.598;2023-03-01T00:39:48;1.88;60.25
76384;SHT30;65204;48.606;7.598;2023-03-01T00:40:18;1.88;60.34
76384;SHT30;65204;48.606;7.598;2023-03-01T00:40:49;1.86;60.44
76384;SHT30;65204;48.606;7.598;2023-03-01T00:41:20;1.86;60.42
76384;SHT30;65204;48.606;7.598;2023-03-01T00:41:52;1.84;60.38
76384;SHT30;65204;48.606;7.598;2023-03-01T00:42:22;1.85;60.41
76384;SHT30;65204;48.606;7.598;2023-03-01T00:42:53;1.84;60.47
76384;SHT30;65204;48.606;7.598;2023-03-01T00:43:24;1.85;60.41
76384;SHT30;65204;48.606;7.598;2023-03-01T00:43:54;1.85;60.45
76384;SHT30;65204;48.606;7.598;2023-03-01T00:44:25;1.85;60.45
76384;SHT30;65204;48.606;7.598;2023-03-01T00:44:55;1.85;60.34
76384;SHT30;65204;48.606;7.598;2023-03-01T00:45:26;1.86;60.39
76384;SHT30;65204;48.606;7.598;2023-03-01T00:46:01;1.84;60.42
76384;SHT30;65204;48.606;7.598;2023-03-01T00:46:31;1.82;60.50
76384;SHT30;65204;48.606;7.598;2023-03-01T00:47:02;1.84;60.52
76384;SHT30;65204;48.606;7.598;2023-03-01T00:47:32;1.82;60.59
76384;SHT30;65204;48.606;7.598;2023-03-01T00:48:03;1.79;60.63
76384;SHT30;65204;48.606;7.598;2023-03-01T00:48:34;1.78;60.60
76384;SHT30;65204;48.606;7.598;2023-03-01T00:49:04;1.78;60.72
76384;SHT30;65204;48.606;7.598;2023-03-01T00:49:35;1.78;60.78
76384;SHT30;65204;48.606;7.598;2023-03-01T00:50:05;1.75;60.79
76384;SHT30;65204;48.606;7.598;2023-03-01T00:50:36;1.78;60.72
76384;SHT30;65204;48.606;7.598;2023-03-01T00:51:37;1.74;60.86
76384;SHT30;65204;48.606;7.598;2023-03-01T00:52:09;1.71;60.91
76384;SHT30;65204;48.606;7.598;2023-03-01T00:52:39;1.71;60.89
76384;SHT30;65204;48.606;7.598;2023-03-01T00:53:10;1.74;60.99
76384;SHT30;65204;48.606;7.598;2023-03-01T00:53:41;1.68;60.95
76384;SHT30;65204;48.606;7.598;2023-03-01T00:54:11;1.68;60.94
76384;SHT30;65204;48.606;7.598;2023-03-01T00:54:43;1.67;61.06
76384;SHT30;65204;48.606;7.598;2023-03-01T00:55:13;1.67;61.09
76384;SHT30;65204;48.606;7.598;2023-03-01T00:55:43;1.67;61.09
76384;SHT30;65204;48.606;7.598;2023-03-01T00:56:14;1.67;61.09
76384;SHT30;65204;48.606;7.598;2023-03-01T00:56:45;1.65;61.13
76384;SHT30;65204;48.606;7.598;2023-03-01T00:57:15;1.65;61.13
76384;SHT30;65204;48.606;7.598;2023-03-01T00:57:45;1.62;61.22
76384;SHT30;65204;48.606;7.598;2023-03-01T00:58:16;1.61;61.29
76384;SHT30;65204;48.606;7.598;2023-03-01T00:58:46;1.61;61.38
76384;SHT30;65204;48.606;7.598;2023-03-01T00:59:17;1.61;61.31
76384;SHT30;65204;48.606;7.598;2023-03-01T00:59:48;1.60;61.33
76384;SHT30;65204;48.606;7.598;2023-03-01T01:00:19;1.60;61.40
76384;SHT30;65204;48.606;7.598;2023-03-01T01:00:50;1.61;61.41
76384;SHT30;65204;48.606;7.598;2023-03-01T01:01:23;1.61;61.41
76384;SHT30;65204;48.606;7.598;2023-03-01T01:01:54;1.60;61.41
76384;SHT30;65204;48.606;7.598;2023-03-01T01:02:24;1.60;61.40
76384;SHT30;65204;48.606;7.598;2023-03-01T01:02:55;1.61;61.36
76384;SHT30;65204;48.606;7.598;2023-03-01T01:03:25;1.60;61.41
76384;SHT30;65204;48.606;7.598;2023-03-01T01:04:10;1.58;61.37
76384;SHT30;65204;48.606;7.598;2023-03-01T01:04:41;1.60;61.43
76384;SHT30;65204;48.606;7.598;2023-03-01T01:05:11;1.64;61.41
76384;SHT30;65204;48.606;7.598;2023-03-01T01:05:42;1.62;61.35
76384;SHT30;65204;48.606;7.598;2023-03-01T01:06:17;1.62;61.33
76384;SHT30;65204;48.606;7.598;2023-03-01T01:06:48;1.60;61.39
76384;SHT30;65204;48.606;7.598;2023-03-01T01:07:18;1.54;61.47
76384;SHT30;65204;48.606;7.598;2023-03-01T01:07:50;1.51;61.56
76384;SHT30;65204;48.606;7.598;2023-03-01T01:08:20;1.51;61.65
76384;SHT30;65204;48.606;7.598;2023-03-01T01:08:51;1.51;61.65
76384;SHT30;65204;48.606;7.598;2023-03-01T01:09:22;1.52;61.69
76384;SHT30;65204;48.606;7.598;2023-03-01T01:09:52;1.52;61.67
76384;SHT30;65204;48.606;7.598;2023-03-01T01:10:22;1.54;61.64
76384;SHT30;65204;48.606;7.598;2023-03-01T01:10:53;1.52;61.66
76384;SHT30;65204;48.606;7.598;2023-03-01T01:11:26;1.55;61.67
76384;SHT30;65204;48.606;7.598;2023-03-01T01:11:57;1.54;61.74
76384;SHT30;65204;48.606;7.598;2023-03-01T01:12:27;1.54;61.68
76384;SHT30;65204;48.606;7.598;2023-03-01T01:12:57;1.55;61.70
76384;SHT30;65204;48.606;7.598;2023-03-01T01:13:28;1.54;61.70
76384;SHT30;65204;48.606;7.598;2023-03-01T01:13:59;1.54;61.75
76384;SHT30;65204;48.606;7.598;2023-03-01T01:14:29;1.54;61.84
76384;SHT30;65204;48.606;7.598;2023-03-01T01:15:00;1.52;61.82
76384;SHT30;65204;48.606;7.598;2023-03-01T01:15:34;1.52;61.74
76384;SHT30;65204;48.606;7.598;2023-03-01T01:16:05;1.52;61.79
76384;SHT30;65204;48.606;7.598;2023-03-01T01:16:35;1.52;61.82
76384;SHT30;65204;48.606;7.598;2023-03-01T01:17:06;1.55;61.82
76384;SHT30;65204;48.606;7.598;2023-03-01T01:17:36;1.54;61.81
76384;SHT30;65204;48.606;7.598;2023-03-01T01:18:06;1.50;61.79
76384;SHT30;65204;48.606;7.598;2023-03-01T01:18:37;1.51;61.77
76384;SHT30;65204;48.606;7.598;2023-03-01T01:19:09;1.50;61.82
76384;SHT30;65204;48.606;7.598;2023-03-01T01:19:39;1.51;61.88
76384;SHT30;65204;48.606;7.598;2023-03-01T01:20:11;1.51;61.86
76384;SHT30;65204;48.606;7.598;2023-03-01T01:20:41;1.51;61.95
76384;SHT30;65204;48.606;7.598;2023-03-01T01:21:15;1.50;61.86
76384;SHT30;65204;48.606;7.598;2023-03-01T01:21:45;1.51;61.92
76384;SHT30;65204;48.606;7.598;2023-03-01T01:22:17;1.48;61.91
76384;SHT30;65204;48.606;7.598;2023-03-01T01:22:47;1.51;61.95
76384;SHT30;65204;48.606;7.598;2023-03-01T01:23:18;1.50;61.95
76384;SHT30;65204;48.606;7.598;2023-03-01T01:23:48;1.50;61.95
76384;SHT30;65204;48.606;7.598;2023-03-01T01:24:19;1.50;61.99
76384;SHT30;65204;48.606;7.598;2023-03-01T01:24:49;1.51;61.99
76384;SHT30;65204;48.606;7.598;2023-03-01T01:25:20;1.48;61.92
76384;SHT30;65204;48.606;7.598;2023-03-01T01:25:50;1.52;61.84
76384;SHT30;65204;48.606;7.598;2023-03-01T01:26:24;1.51;61.90
76384;SHT30;65204;48.606;7.598;2023-03-01T01:26:55;1.51;61.95
76384;SHT30;65204;48.606;7.598;2023-03-01T01:27:25;1.47;61.97
76384;SHT30;65204;48.606;7.598;2023-03-01T01:27:56;1.50;62.06
76384;SHT30;65204;48.606;7.598;2023-03-01T01:28:26;1.48;62.04
76384;SHT30;65204;48.606;7.598;2023-03-01T01:28:56;1.48;61.98
76384;SHT30;65204;48.606;7.598;2023-03-01T01:29:27;1.51;61.95
76384;SHT30;65204;48.606;7.598;2023-03-01T01:29:57;1.48;61.98
76384;SHT30;65204;48.606;7.598;2023-03-01T01:30:28;1.48;62.03
76384;SHT30;65204;48.606;7.598;2023-03-01T01:30:58;1.47;62.00
76384;SHT30;65204;48.606;7.598;2023-03-01T01:31:29;1.50;62.03
76384;SHT30;65204;48.606;7.598;2023-03-01T01:32:00;1.46;62.08
76384;SHT30;65204;48.606;7.598;2023-03-01T01:32:30;1.47;62.14
76384;SHT30;65204;48.606;7.598;2023-03-01T01:33:01;1.46;62.10
76384;SHT30;65204;48.606;7.598;2023-03-01T01:33:32;1.44;62.10
76384;SHT30;65204;48.606;7.598;2023-03-01T01:34:05;1.47;62.21
76384;SHT30;65204;48.606;7.598;2023-03-01T01:34:35;1.47;62.15
76384;SHT30;65204;48.606;7.598;2023-03-01T01:35:06;1.44;62.12
76384;SHT30;65204;48.606;7.598;2023-03-01T01:35:36;1.46;62.15
76384;SHT30;65204;48.606;7.598;2023-03-01T01:36:07;1.46;62.12
76384;SHT30;65204;48.606;7.598;2023-03-01T01:36:38;1.47;62.12
76384;SHT30;65204;48.606;7.598;2023-03-01T01:37:08;1.48;62.09
76384;SHT30;65204;48.606;7.598;2023-03-01T01:37:39;1.44;62.08
76384;SHT30;65204;48.606;7.598;2023-03-01T01:38:09;1.46;62.12
76384;SHT30;65204;48.606;7.598;2023-03-01T01:38:39;1.46;62.17
76384;SHT30;65204;48.606;7.598;2023-03-01T01:39:10;1.44;62.16
76384;SHT30;65204;48.606;7.598;2023-03-01T01:39:44;1.46;62.14
76384;SHT30;65204;48.606;7.598;2023-03-01T01:40:14;1.43;62.25
76384;SHT30;65204;48.606;7.598;2023-03-01T01:40:49;1.46;62.28
76384;SHT30;65204;48.606;7.598;2023-03-01T01:41:21;1.44;62.23
76384;SHT30;65204;48.606;7.598;2023-03-01T01:41:51;1.44;62.18
76384;SHT30;65204;48.606;7.598;2023-03-01T01:42:22;1.44;62.17
76384;SHT30;65204;48.606;7.598;2023-03-01T01:42:52;1.43;62.30
76384;SHT30;65204;48.606;7.598;2023-03-01T01:43:28;1.39;62.35
76384;SHT30;65204;48.606;7.598;2023-03-01T01:44:14;1.41;62.37
76384;SHT30;65204;48.606;7.598;2023-03-01T01:44:46;1.39;62.37
76384;SHT30;65204;48.606;7.598;2023-03-01T01:45:33;1.36;62.34
76384;SHT30;65204;48.606;7.598;2023-03-01T01:46:30;1.37;62.44
76384;SHT30;65204;48.606;7.598;2023-03-01T01:47:07;1.41;62.40
76384;SHT30;65204;48.606;7.598;2023-03-01T01:47:42;1.40;62.26
76384;SHT30;65204;48.606;7.598;2023-03-01T01:48:18;1.40;62.37
76384;SHT30;65204;48.606;7.598;2023-03-01T01:49:09;1.41;62.40
76384;SHT30;65204;48.606;7.598;2023-03-01T01:49:46;1.40;62.44
76384;SHT30;65204;48.606;7.598;2023-03-01T01:50:18;1.39;62.42
76384;SHT30;65204;48.606;7.598;2023-03-01T01:50:56;1.39;62.51
76384;SHT30;65204;48.606;7.598;2023-03-01T01:51:33;1.34;62.53
76384;SHT30;65204;48.606;7.598;2023-03-01T01:52:34;1.34;62.57
76384;SHT30;65204;48.606;7.598;2023-03-01T01:53:12;1.31;62.60
76384;SHT30;65204;48.606;7.598;2023-03-01T01:53:46;1.31;62.66
76384;SHT30;65204;48.606;7.598;2023-03-01T01:54:27;1.27;62.70
76384;SHT30;65204;48.606;7.598;2023-03-01T01:55:25;1.29;62.83
76384;SHT30;65204;48.606;7.598;2023-03-01T01:56:00;1.30;62.69
76384;SHT30;65204;48.606;7.598;2023-03-01T01:56:31;1.30;62.75
76384;SHT30;65204;48.606;7.598;2023-03-01T01:57:07;1.26;62.86
76384;SHT30;65204;48.606;7.598;2023-03-01T01:57:43;1.23;62.88
76384;SHT30;65204;48.606;7.598;2023-03-01T01:58:18;1.23;62.88
76384;SHT30;65204;48.606;7.598;2023-03-01T01:58:49;1.27;63.04
76384;SHT30;65204;48.606;7.598;2023-03-01T01:59:21;1.24;62.98
76384;SHT30;65204;48.606;7.598;2023-03-01T01:59:58;1.26;63.00
76384;SHT30;65204;48.606;7.598;2023-03-01T02:00:29;1.20;62.99
76384;SHT30;65204;48.606;7.598;2023-03-01T02:01:00;1.22;63.05
76384;SHT30;65204;48.606;7.598;2023-03-01T02:01:32;1.23;63.07
76384;SHT30;65204;48.606;7.598;2023-03-01T02:02:03;1.22;63.10
76384;SHT30;65204;48.606;7.598;2023-03-01T02:02:33;1.22;63.10
76384;SHT30;65204;48.606;7.598;2023-03-01T02:03:13;1.23;63.13
76384;SHT30;65204;48.606;7.598;2023-03-01T02:03:48;1.22;63.11
76384;SHT30;65204;48.606;7.598;2023-03-01T02:04:18;1.23;63.12
76384;SHT30;65204;48.606;7.598;2023-03-01T02:04:53;1.22;63.16
76384;SHT30;65204;48.606;7.598;2023-03-01T02:05:34;1.24;63.10
76384;SHT30;65204;48.606;7.598;2023-03-01T02:06:13;1.23;63.14
76384;SHT30;65204;48.606;7.598;2023-03-01T02:06:52;1.26;63.11
76384;SHT30;65204;48.606;7.598;2023-03-01T02:07:26;1.27;63.04
76384;SHT30;65204;48.606;7.598;2023-03-01T02:07:58;1.26;62.98
76384;SHT30;65204;48.606;7.598;2023-03-01T02:08:30;1.26;63.04
76384;SHT30;65204;48.606;7.598;2023-03-01T02:09:09;1.26;63.06
76384;SHT30;65204;48.606;7.598;2023-03-01T02:09:49;1.22;63.04
76384;SHT30;65204;48.606;7.598;2023-03-01T02:10:21;1.23;63.07
76384;SHT30;65204;48.606;7.598;2023-03-01T02:10:54;1.24;63.23
76384;SHT30;65204;48.606;7.598;2023-03-01T02:11:27;1.24;63.11
76384;SHT30;65204;48.606;7.598;2023-03-01T02:11:59;1.23;63.13
76384;SHT30;65204;48.606;7.598;2023-03-01T02:12:30;1.20;63.25
76384;SHT30;65204;48.606;7.598;2023-03-01T02:13:02;1.22;63.31
76384;SHT30;65204;48.606;7.598;2023-03-01T02:13:34;1.20;63.27
76384;SHT30;65204;48.606;7.598;2023-03-01T02:14:05;1.22;63.27
76384;SHT30;65204;48.606;7.598;2023-03-01T02:14:36;1.23;63.28
76384;SHT30;65204;48.606;7.598;2023-03-01T02:15:06;1.23;63.25
76384;SHT30;65204;48.606;7.598;2023-03-01T02:15:38;1.22;63.23
76384;SHT30;65204;48.606;7.598;2023-03-01T02:16:12;1.19;63.29
76384;SHT30;65204;48.606;7.598;2023-03-01T02:16:43;1.19;63.36
76384;SHT30;65204;48.606;7.598;2023-03-01T02:17:15;1.22;63.36
76384;SHT30;65204;48.606;7.598;2023-03-01T02:17:46;1.20;63.33
76384;SHT30;65204;48.606;7.598;2023-03-01T02:18:18;1.22;63.36
76384;SHT30;65204;48.606;7.598;2023-03-01T02:18:50;1.22;63.39
76384;SHT30;65204;48.606;7.598;2023-03-01T02:21:53;1.22;63.53
76384;SHT30;65204;48.606;7.598;2023-03-01T02:22:30;1.20;63.38
76384;SHT30;65204;48.606;7.598;2023-03-01T02:23:01;1.22;63.49
76384;SHT30;65204;48.606;7.598;2023-03-01T02:23:32;1.23;63.46
76384;SHT30;65204;48.606;7.598;2023-03-01T02:24:39;1.23;63.44
76384;SHT30;65204;48.606;7.598;2023-03-01T02:25:58;1.22;63.44
76384;SHT30;65204;48.606;7.598;2023-03-01T02:26:38;1.20;63.50
76384;SHT30;65204;48.606;7.598;2023-03-01T02:27:10;1.19;63.50
76384;SHT30;65204;48.606;7.598;2023-03-01T02:28:28;1.16;63.66
76384;SHT30;65204;48.606;7.598;2023-03-01T02:28:59;1.17;63.71
76384;SHT30;65204;48.606;7.598;2023-03-01T02:29:29;1.19;63.69
76384;SHT30;65204;48.606;7.598;2023-03-01T02:30:00;1.17;63.81
76384;SHT30;65204;48.606;7.598;2023-03-01T02:30:31;1.16;63.76
76384;SHT30;65204;48.606;7.598;2023-03-01T02:31:05;1.17;63.76
76384;SHT30;65204;48.606;7.598;2023-03-01T02:31:58;1.17;63.71
76384;SHT30;65204;48.606;7.598;2023-03-01T02:32:30;1.17;63.76
76384;SHT30;65204;48.606;7.598;2023-03-01T02:33:03;1.17;63.78
76384;SHT30;65204;48.606;7.598;2023-03-01T02:33:36;1.19;63.83
76384;SHT30;65204;48.606;7.598;2023-03-01T02:34:22;1.17;63.93
76384;SHT30;65204;48.606;7.598;2023-03-01T02:34:55;1.15;63.86
76384;SHT30;65204;48.606;7.598;2023-03-01T02:35:26;1.15;63.96
76384;SHT30;65204;48.606;7.598;2023-03-01T02:35:56;1.17;64.01
76384;SHT30;65204;48.606;7.598;2023-03-01T02:36:37;1.16;63.99
76384;SHT30;65204;48.606;7.598;2023-03-01T02:37:13;1.16;64.04
76384;SHT30;65204;48.606;7.598;2023-03-01T02:37:44;1.19;63.99
76384;SHT30;65204;48.606;7.598;2023-03-01T02:38:15;1.20;63.91
76384;SHT30;65204;48.606;7.598;2023-03-01T02:38:47;1.17;63.96
76384;SHT30;65204;48.606;7.598;2023-03-01T02:39:24;1.19;64.01
76384;SHT30;65204;48.606;7.598;2023-03-01T02:39:59;1.16;63.94
76384;SHT30;65204;48.606;7.598;2023-03-01T02:40:34;1.20;63.88
76384;SHT30;65204;48.606;7.598;2023-03-01T02:41:08;1.19;63.95
76384;SHT30;65204;48.606;7.598;2023-03-01T02:41:43;1.17;64.02
76384;SHT30;65204;48.606;7.598;2023-03-01T02:42:22;1.15;64.10
76384;SHT30;65204;48.606;7.598;2023-03-01T02:42:56;1.22;63.95
76384;SHT30;65204;48.606;7.598;2023-03-01T02:43:31;1.22;63.87
76384;SHT30;65204;48.606;7.598;2023-03-01T02:44:02;1.20;63.80
76384;SHT30;65204;48.606;7.598;2023-03-01T02:44:33;1.19;63.82
76384;SHT30;65204;48.606;7.598;2023-03-01T02:45:03;1.23;63.89
76384;SHT30;65204;48.606;7.598;2023-03-01T02:45:34;1.22;63.77
76384;SHT30;65204;48.606;7.598;2023-03-01T02:46:08;1.24;63.77
76384;SHT30;65204;48.606;7.598;2023-03-01T02:46:45;1.22;63.78
76384;SHT30;65204;48.606;7.598;2023-03-01T02:47:16;1.27;63.85
76384;SHT30;65204;48.606;7.598;2023-03-01T02:47:46;1.24;63.69
76384;SHT30;65204;48.606;7.598;2023-03-01T02:48:17;1.22;63.73
76384;SHT30;65204;48.606;7.598;2023-03-01T02:48:57;1.23;63.74
76384;SHT30;65204;48.606;7.598;2023-03-01T02:49:29;1.23;63.77
76384;SHT30;65204;48.606;7.598;2023-03-01T02:50:00;1.20;63.89
76384;SHT30;65204;48.606;7.598;2023-03-01T02:51:22;1.17;63.97
76384;SHT30;65204;48.606;7.598;2023-03-01T02:52:17;1.17;63.86
76384;SHT30;65204;48.606;7.598;2023-03-01T02:53:11;1.17;63.94
76384;SHT30;65204;48.606;7.598;2023-03-01T02:55:35;1.10;64.10
76384;SHT30;65204;48.606;7.598;2023-03-01T02:56:06;1.07;64.07
76384;SHT30;65204;48.606;7.598;2023-03-01T02:56:44;1.09;64.15
76384;SHT30;65204;48.606;7.598;2023-03-01T02:57:15;1.06;64.27
76384;SHT30;65204;48.606;7.598;2023-03-01T02:57:47;1.10;64.25
76384;SHT30;65204;48.606;7.598;2023-03-01T02:58:20;1.12;64.25
76384;SHT30;65204;48.606;7.598;2023-03-01T02:58:51;1.09;64.25
76384;SHT30;65204;48.606;7.598;2023-03-01T02:59:25;1.06;64.29
76384;SHT30;65204;48.606;7.598;2023-03-01T03:00:00;1.10;64.23
76384;SHT30;65204;48.606;7.598;2023-03-01T03:00:36;1.10;64.22
76384;SHT30;65204;48.606;7.598;2023-03-01T03:01:09;1.13;64.15
76384;SHT30;65204;48.606;7.598;2023-03-01T03:01:40;1.12;64.21
76384;SHT30;65204;48.606;7.598;2023-03-01T03:02:38;1.10;64.14
76384;SHT30;65204;48.606;7.598;2023-03-01T03:03:08;1.10;64.16
76384;SHT30;65204;48.606;7.598;2023-03-01T03:03:39;1.07;64.21
76384;SHT30;65204;48.606;7.598;2023-03-01T03:04:14;1.10;64.25
76384;SHT30;65204;48.606;7.598;2023-03-01T03:04:47;1.09;64.24
76384;SHT30;65204;48.606;7.598;2023-03-01T03:05:20;1.09;64.23
76384;SHT30;65204;48.606;7.598;2023-03-01T03:05:51;1.10;64.19
76384;SHT30;65204;48.606;7.598;2023-03-01T03:06:21;1.09;64.17
76384;SHT30;65204;48.606;7.598;2023-03-01T03:06:51;1.04;64.19
76384;SHT30;65204;48.606;7.598;2023-03-01T03:07:22;1.07;64.29
76384;SHT30;65204;48.606;7.598;2023-03-01T03:07:52;1.04;64.27
76384;SHT30;65204;48.606;7.598;2023-03-01T03:08:22;1.07;64.36
76384;SHT30;65204;48.606;7.598;2023-03-01T03:08:53;1.09;64.29
76384;SHT30;65204;48.606;7.598;2023-03-01T03:09:24;1.09;64.30
76384;SHT30;65204;48.606;7.598;2023-03-01T03:09:54;1.07;64.28
76384;SHT30;65204;48.606;7.598;2023-03-01T03:10:34;1.09;64.24
76384;SHT30;65204;48.606;7.598;2023-03-01T03:11:04;1.06;64.22
76384;SHT30;65204;48.606;7.598;2023-03-01T03:11:35;1.06;64.27
76384;SHT30;65204;48.606;7.598;2023-03-01T03:12:06;1.07;64.28
76384;SHT30;65204;48.606;7.598;2023-03-01T03:12:37;1.04;64.38
76384;SHT30;65204;48.606;7.598;2023-03-01T03:13:10;1.06;64.43
76384;SHT30;65204;48.606;7.598;2023-03-01T03:13:42;1.04;64.44
76384;SHT30;65204;48.606;7.598;2023-03-01T03:14:18;1.04;64.42
76384;SHT30;65204;48.606;7.598;2023-03-01T03:14:48;1.01;64.48
76384;SHT30;65204;48.606;7.598;2023-03-01T03:15:20;1.04;64.42
76384;SHT30;65204;48.606;7.598;2023-03-01T03:15:50;1.07;64.44
76384;SHT30;65204;48.606;7.598;2023-03-01T03:16:21;1.06;64.50
76384;SHT30;65204;48.606;7.598;2023-03-01T03:16:51;1.07;64.42
76384;SHT30;65204;48.606;7.598;2023-03-01T03:17:22;1.07;64.41
76384;SHT30;65204;48.606;7.598;2023-03-01T03:17:53;1.06;64.45
76384;SHT30;65204;48.606;7.598;2023-03-01T03:18:24;1.09;64.38
76384;SHT30;65204;48.606;7.598;2023-03-01T03:18:57;1.10;64.42
76384;SHT30;65204;48.606;7.598;2023-03-01T03:19:35;1.12;64.32
76384;SHT30;65204;48.606;7.598;2023-03-01T03:20:06;1.10;64.38
76384;SHT30;65204;48.606;7.598;2023-03-01T03:20:42;1.09;64.31
76384;SHT30;65204;48.606;7.598;2023-03-01T03:21:13;1.09;64.30
76384;SHT30;65204;48.606;7.598;2023-03-01T03:21:43;1.15;64.27
76384;SHT30;65204;48.606;7.598;2023-03-01T03:22:14;1.15;64.22
76384;SHT30;65204;48.606;7.598;2023-03-01T03:22:46;1.15;64.16
76384;SHT30;65204;48.606;7.598;2023-03-01T03:23:17;1.16;64.14
76384;SHT30;65204;48.606;7.598;2023-03-01T03:23:47;1.15;64.17
76384;SHT30;65204;48.606;7.598;2023-03-01T03:24:18;1.16;64.17
76384;SHT30;65204;48.606;7.598;2023-03-01T03:24:48;1.12;64.25
76384;SHT30;65204;48.606;7.598;2023-03-01T03:25:20;1.13;64.22
76384;SHT30;65204;48.606;7.598;2023-03-01T03:25:51;1.12;64.25
76384;SHT30;65204;48.606;7.598;2023-03-01T03:26:21;1.10;64.24
76384;SHT30;65204;48.606;7.598;2023-03-01T03:26:51;1.12;64.22
76384;SHT30;65204;48.606;7.598;2023-03-01T03:27:22;1.09;64.27
76384;SHT30;65204;48.606;7.598;2023-03-01T03:27:52;1.10;64.30
76384;SHT30;65204;48.606;7.598;2023-03-01T03:28:26;1.10;64.25
76384;SHT30;65204;48.606;7.598;2023-03-01T03:28:57;1.10;64.33
76384;SHT30;65204;48.606;7.598;2023-03-01T03:29:27;1.12;64.29
76384;SHT30;65204;48.606;7.598;2023-03-01T03:29:57;1.10;64.36
76384;SHT30;65204;48.606;7.598;2023-03-01T03:30:30;1.04;64.46
76384;SHT30;65204;48.606;7.598;2023-03-01T03:31:01;1.06;64.46
76384;SHT30;65204;48.606;7.598;2023-03-01T03:31:33;1.07;64.48
76384;SHT30;65204;48.606;7.598;2023-03-01T03:32:04;1.04;64.46
76384;SHT30;65204;48.606;7.598;2023-03-01T03:32:36;1.04;64.48
76384;SHT30;65204;48.606;7.598;2023-03-01T03:33:07;1.06;64.50
76384;SHT30;65204;48.606;7.598;2023-03-01T03:33:38;1.04;64.48
76384;SHT30;65204;48.606;7.598;2023-03-01T03:34:08;1.03;64.54
76384;SHT30;65204;48.606;7.598;2023-03-01T03:34:45;1.01;64.53
76384;SHT30;65204;48.606;7.598;2023-03-01T03:35:16;1.03;64.49
76384;SHT30;65204;48.606;7.598;2023-03-01T03:35:48;0.93;64.57